メインページ
METAR-TAF:

METAR-TAF

空港 :

イカルイト, ヌナブト準州, カナダ

イカルイト空港

緯度: 63-45N, 経度: 068-33W, 海抜: 34m

現時点の気象観測

当レポートは55分前の21:11(UTC)に作成
西/北西の風 16kt、最大21ktの突風を伴う
気温 -28°C
湿度 62%
気圧 1008 hPa
視程: 6.4km
高度6000ftの千切れ雲あり
氷晶, 低い地吹雪

METAR: CYFB 192111Z 30016G21KT 4SM IC DRSN BKN060 M28/M33 A2976 RMK IC6SC1 SLP083

時間: 17:06 (22:06 UTC)

予報

当レポートは2時間33分前の19:33(UTC)に作成
予報は19日の 19時(UTC)から 20日の 18時(UTC)まで有効
西/北西の風 15kt
視程: 3.2km
高度2000ftの
小雪, 高い地吹雪
19日の 19時(UTC)から 20日の 06時(UTC)まで一時的に
視程: 10km
高度3000ftの千切れ雲あり
高度8000ftの千切れ雲あり
小雪
20日の 0600時(UTC)から
北西の風 15kt、最大25ktの突風を伴う
視程: 1.6km
高度2000ftの
小雪, 高い地吹雪
20日の 06時(UTC)から 20日の 18時(UTC)まで一時的に
視程: 4.8km
高度3000ftの千切れ雲あり
小雪, 高い地吹雪

TAF: CYFB 191933Z 1919/2018 30015KT 2SM -SN BLSN VV020 TEMPO 1919/2006 P6SM -SN BKN030 BKN080 FM200600 32015G25KT 1SM -SN BLSN VV020 TEMPO 2006/2018 3SM -SN BLSN BKN030 RMK NXT FCST BY 200000Z

4,000以上の空港の気象観測と天気予報(METAR報とTAF報)

利用可能な観測所は地図上に黄色い丸と赤い丸で示す。

丸の上にカーソルを重ねると観測所名を参照できる。

次にクリックすると気象観測と天気予報を参照できる。

マップの切り替え:黒色「×」印の緑ボタンをクリックして拡大、「-」印の緑ボタンをクリックして縮小、緑色の三角印をクリックして隣りの地図に切り替え


METAR-TAF: